createdAt,value
2022-07-28T00:00:44.467Z,1.00
2022-07-28T00:03:11.453Z,1.10
2022-07-28T00:05:38.720Z,0.83
2022-07-28T00:08:06.143Z,1.03
2022-07-28T00:10:33.008Z,1.33
2022-07-28T00:13:00.475Z,0.73
2022-07-28T00:15:28.053Z,1.03
2022-07-28T00:17:54.997Z,0.73
2022-07-28T00:20:22.111Z,0.90
2022-07-28T00:22:48.930Z,0.97
2022-07-28T00:25:15.841Z,0.80
2022-07-28T00:27:42.638Z,0.90
2022-07-28T00:30:10.108Z,0.80
2022-07-28T00:32:38.578Z,0.97
2022-07-28T00:35:08.118Z,1.17
2022-07-28T00:37:35.817Z,1.10
2022-07-28T00:40:08.268Z,0.90
2022-07-28T00:42:35.225Z,1.00
2022-07-28T00:45:02.164Z,0.80
2022-07-28T00:47:33.701Z,1.10
2022-07-28T00:50:02.469Z,1.07
2022-07-28T00:52:29.836Z,1.20
2022-07-28T00:54:57.956Z,1.00
2022-07-28T00:57:24.939Z,1.03
2022-07-28T00:59:51.827Z,0.97
2022-07-28T01:02:19.101Z,0.90
2022-07-28T01:04:46.551Z,1.13
2022-07-28T01:07:32.763Z,1.50
2022-07-28T01:10:08.926Z,1.17
2022-07-28T01:12:38.566Z,1.10
2022-07-28T01:15:40.788Z,1.30
2022-07-28T01:18:17.048Z,0.80
2022-07-28T01:21:05.104Z,1.17
2022-07-28T01:23:31.892Z,1.07
2022-07-28T01:26:14.178Z,0.80
2022-07-28T01:29:01.283Z,1.10
2022-07-28T01:31:36.739Z,1.23
2022-07-28T01:34:15.564Z,1.10
2022-07-28T01:36:46.516Z,1.10
2022-07-28T01:39:15.057Z,0.80
2022-07-28T01:41:44.475Z,1.00
2022-07-28T01:44:18.679Z,1.00
2022-07-28T01:46:46.414Z,1.00
2022-07-28T01:49:14.272Z,1.10
2022-07-28T01:51:42.824Z,1.00
2022-07-28T01:54:11.674Z,1.00
2022-07-28T01:56:40.819Z,0.97
2022-07-28T01:59:11.800Z,0.73
2022-07-28T02:01:43.598Z,1.33
2022-07-28T02:04:12.384Z,1.00
2022-07-28T02:06:41.723Z,1.10
2022-07-28T02:09:09.903Z,1.03
2022-07-28T02:11:40.175Z,1.00
2022-07-28T02:14:27.435Z,1.33
2022-07-28T02:17:16.388Z,1.03
2022-07-28T02:19:46.055Z,0.90
2022-07-28T02:22:14.132Z,1.10
2022-07-28T02:24:43.323Z,1.20
2022-07-28T02:27:30.455Z,1.00
2022-07-28T02:30:10.199Z,0.83
2022-07-28T02:32:41.551Z,1.00
2022-07-28T02:35:31.299Z,0.93
2022-07-28T02:38:07.494Z,1.90
2022-07-28T02:40:36.937Z,1.00
2022-07-28T02:43:08.886Z,0.90
2022-07-28T02:45:40.240Z,0.90
2022-07-28T02:48:11.783Z,1.30
2022-07-28T02:50:41.078Z,1.07
2022-07-28T02:53:15.247Z,0.97
2022-07-28T02:55:46.136Z,1.00
2022-07-28T02:58:15.663Z,1.00
2022-07-28T03:00:44.239Z,1.30
2022-07-28T03:03:12.191Z,4.00
2022-07-28T03:05:41.183Z,1.10
2022-07-28T03:08:09.301Z,1.33
2022-07-28T03:10:36.096Z,1.07
2022-07-28T03:13:06.799Z,1.10
2022-07-28T03:15:35.021Z,0.83
2022-07-28T03:18:04.136Z,1.10
2022-07-28T03:20:31.432Z,1.03
2022-07-28T03:22:59.692Z,0.80
2022-07-28T03:25:34.996Z,1.13
2022-07-28T03:28:04.853Z,1.00
2022-07-28T03:30:43.035Z,0.80
2022-07-28T03:33:10.173Z,0.80
2022-07-28T03:35:44.747Z,1.20
2022-07-28T03:38:17.911Z,0.90
2022-07-28T03:40:46.563Z,1.10
2022-07-28T03:43:16.863Z,1.00
2022-07-28T03:45:46.871Z,1.23
2022-07-28T03:48:14.948Z,1.00
2022-07-28T03:50:41.929Z,1.03
2022-07-28T03:53:22.187Z,1.10
2022-07-28T03:55:53.494Z,1.30
2022-07-28T03:58:21.871Z,1.43
2022-07-28T04:00:54.027Z,1.20
2022-07-28T04:03:36.314Z,0.90
2022-07-28T04:06:08.408Z,1.20
2022-07-28T04:08:35.250Z,1.00
2022-07-28T04:11:02.511Z,1.03
2022-07-28T04:13:31.903Z,1.03
2022-07-28T04:15:59.625Z,1.07
2022-07-28T04:18:26.481Z,0.90
2022-07-28T04:20:53.340Z,0.93
2022-07-28T04:23:20.974Z,1.10
2022-07-28T04:25:48.150Z,1.40
2022-07-28T04:28:15.733Z,1.10
2022-07-28T04:30:43.927Z,1.30
2022-07-28T04:33:12.106Z,1.00
2022-07-28T04:35:39.011Z,1.30
2022-07-28T04:38:05.982Z,1.20
2022-07-28T04:40:34.384Z,1.13
2022-07-28T04:43:01.489Z,1.20
2022-07-28T04:45:29.132Z,1.10
2022-07-28T04:47:56.216Z,0.90
2022-07-28T04:50:23.131Z,1.10
2022-07-28T04:52:58.965Z,1.30
2022-07-28T04:55:26.400Z,1.10
2022-07-28T04:57:53.186Z,1.40
2022-07-28T05:00:22.994Z,1.30
2022-07-28T05:02:50.492Z,1.37
2022-07-28T05:05:17.901Z,1.10
2022-07-28T05:07:44.858Z,1.30
2022-07-28T05:10:12.779Z,1.40
2022-07-28T05:12:39.911Z,1.20
2022-07-28T05:15:08.323Z,1.00
2022-07-28T05:17:37.126Z,1.30
2022-07-28T05:20:05.166Z,1.50
2022-07-28T05:22:46.141Z,1.10
2022-07-28T05:25:21.526Z,1.20
2022-07-28T05:27:49.603Z,1.23
2022-07-28T05:30:18.216Z,1.10
2022-07-28T05:32:45.806Z,1.30
2022-07-28T05:35:13.169Z,1.23
2022-07-28T05:37:40.271Z,1.10
2022-07-28T05:40:15.324Z,1.63
2022-07-28T05:42:43.390Z,1.30
2022-07-28T05:45:16.293Z,1.27
2022-07-28T05:47:52.637Z,1.43
2022-07-28T05:50:22.406Z,1.10
2022-07-28T05:52:50.125Z,1.30
2022-07-28T05:55:17.860Z,1.20
2022-07-28T05:57:44.896Z,1.27
2022-07-28T06:00:18.111Z,1.60
2022-07-28T06:02:46.058Z,1.20
2022-07-28T06:05:13.767Z,1.60
2022-07-28T06:07:43.788Z,1.80
2022-07-28T06:10:16.645Z,1.40
2022-07-28T06:12:49.437Z,1.47
2022-07-28T06:15:19.234Z,1.33
2022-07-28T06:17:46.300Z,1.20
2022-07-28T06:20:14.377Z,1.53
2022-07-28T06:22:51.597Z,1.20
2022-07-28T06:25:26.778Z,1.63
2022-07-28T06:27:59.131Z,1.40
2022-07-28T06:30:27.211Z,1.67
2022-07-28T06:32:54.359Z,1.67
2022-07-28T06:35:21.999Z,1.50
2022-07-28T06:37:50.497Z,1.57
2022-07-28T06:40:19.042Z,1.80
2022-07-28T06:42:46.446Z,1.80
2022-07-28T06:45:19.796Z,1.50
2022-07-28T06:47:49.440Z,1.77
2022-07-28T06:50:25.629Z,1.50
2022-07-28T06:52:58.897Z,1.50
2022-07-28T06:55:35.436Z,1.60
2022-07-28T06:58:04.174Z,1.60
2022-07-28T07:00:31.596Z,1.80
2022-07-28T07:03:00.333Z,2.37
2022-07-28T07:05:29.921Z,2.00
2022-07-28T07:07:56.851Z,2.27
2022-07-28T07:10:23.871Z,2.03
2022-07-28T07:12:50.696Z,2.40
2022-07-28T07:15:17.539Z,1.80
2022-07-28T07:17:44.413Z,2.37
2022-07-28T07:20:13.448Z,1.70
2022-07-28T07:22:45.300Z,2.03
2022-07-28T07:25:17.449Z,2.90
2022-07-28T07:27:45.251Z,2.60
2022-07-28T07:30:14.293Z,2.20
2022-07-28T07:32:41.690Z,2.40
2022-07-28T07:35:09.152Z,3.63
2022-07-28T07:37:36.051Z,2.13
2022-07-28T07:40:04.908Z,3.40
2022-07-28T07:42:32.122Z,3.00
2022-07-28T07:44:59.652Z,2.50
2022-07-28T07:47:26.497Z,3.00
2022-07-28T07:49:53.328Z,2.50
2022-07-28T07:52:20.247Z,3.10
2022-07-28T07:54:47.274Z,3.17
2022-07-28T07:57:14.216Z,2.73
2022-07-28T07:59:41.676Z,2.50
2022-07-28T08:02:09.019Z,3.00
2022-07-28T08:04:37.568Z,3.33
2022-07-28T08:07:06.468Z,3.13
2022-07-28T08:09:34.040Z,2.70
2022-07-28T08:12:00.949Z,2.70
2022-07-28T08:14:27.934Z,3.00
2022-07-28T08:16:56.761Z,2.47
2022-07-28T08:19:23.956Z,3.03
2022-07-28T08:21:52.240Z,2.97
2022-07-28T08:24:32.436Z,2.90
2022-07-28T08:27:00.210Z,2.80
2022-07-28T08:29:27.227Z,2.90
2022-07-28T08:31:54.127Z,3.13
2022-07-28T08:34:31.848Z,3.00
2022-07-28T08:37:01.443Z,2.33
2022-07-28T08:39:28.582Z,2.90
2022-07-28T08:41:59.656Z,2.90
2022-07-28T08:44:56.264Z,2.60
2022-07-28T08:47:35.636Z,3.20
2022-07-28T08:50:07.869Z,2.90
2022-07-28T08:52:38.124Z,2.73
2022-07-28T08:55:07.522Z,3.00
2022-07-28T08:57:36.635Z,3.03
2022-07-28T09:00:05.191Z,2.87
2022-07-28T09:02:33.535Z,2.77
2022-07-28T09:05:01.406Z,3.00
2022-07-28T09:07:29.176Z,2.70
2022-07-28T09:10:02.276Z,3.27
2022-07-28T09:12:29.537Z,3.40
2022-07-28T09:14:56.351Z,2.60
2022-07-28T09:17:23.263Z,3.60
2022-07-28T09:19:50.160Z,3.53
2022-07-28T09:22:17.129Z,3.15
2022-07-28T09:24:46.643Z,3.22
2022-07-28T09:27:14.972Z,3.27
2022-07-28T09:29:46.793Z,3.33
2022-07-28T09:32:15.786Z,3.47
2022-07-28T09:34:47.534Z,2.75
2022-07-28T09:37:27.153Z,3.00
2022-07-28T09:39:59.562Z,3.00
2022-07-28T09:42:44.432Z,2.90
2022-07-28T09:45:26.753Z,2.75
2022-07-28T09:48:12.068Z,3.28
2022-07-28T09:50:42.847Z,2.80
2022-07-28T09:53:27.242Z,3.97
2022-07-28T09:55:59.999Z,2.83
2022-07-28T09:58:30.923Z,2.67
2022-07-28T10:01:21.052Z,2.83
2022-07-28T10:03:57.604Z,2.55
2022-07-28T10:06:28.242Z,2.83
2022-07-28T10:09:01.044Z,2.65
2022-07-28T10:11:30.240Z,2.83
2022-07-28T10:14:05.554Z,2.90
2022-07-28T10:16:34.932Z,3.13
2022-07-28T10:19:04.902Z,3.42
2022-07-28T10:21:35.858Z,2.58
2022-07-28T10:24:06.051Z,2.90
2022-07-28T10:26:38.507Z,3.05
2022-07-28T10:29:09.784Z,3.33
2022-07-28T10:31:54.575Z,3.13
2022-07-28T10:34:25.374Z,2.70
2022-07-28T10:36:55.742Z,2.83
2022-07-28T10:39:25.542Z,3.00
2022-07-28T10:41:53.065Z,3.17
2022-07-28T10:44:20.523Z,2.88
2022-07-28T10:46:47.530Z,2.85
2022-07-28T10:49:15.076Z,2.90
2022-07-28T10:52:06.270Z,2.50
2022-07-28T10:54:43.171Z,2.70
2022-07-28T10:57:12.448Z,3.22
2022-07-28T11:00:12.240Z,2.40
2022-07-28T11:02:50.708Z,2.85
2022-07-28T11:05:31.126Z,3.00
2022-07-28T11:08:01.217Z,2.90
2022-07-28T11:10:29.649Z,3.17
2022-07-28T11:12:58.711Z,2.63
2022-07-28T11:15:27.341Z,2.80
2022-07-28T11:18:08.817Z,2.85
2022-07-28T11:20:51.633Z,2.35
2022-07-28T11:23:38.516Z,3.30
2022-07-28T11:26:21.259Z,3.10
2022-07-28T11:29:00.263Z,2.47
2022-07-28T11:31:48.454Z,2.80
2022-07-28T11:34:16.747Z,3.00
2022-07-28T11:37:05.051Z,2.85
2022-07-28T11:39:43.346Z,2.75
2022-07-28T11:42:29.435Z,2.90
2022-07-28T11:45:18.226Z,2.83
2022-07-28T11:47:45.591Z,3.17
2022-07-28T11:50:17.184Z,2.80
2022-07-28T11:52:55.009Z,2.63
2022-07-28T11:55:22.224Z,3.30
2022-07-28T11:58:24.622Z,2.55
2022-07-28T12:01:18.040Z,2.75
2022-07-28T12:03:50.420Z,2.63
2022-07-28T12:06:26.296Z,2.83
2022-07-28T12:08:56.986Z,2.80
2022-07-28T12:11:25.165Z,2.78
2022-07-28T12:14:06.803Z,2.90
2022-07-28T12:16:39.633Z,2.80
2022-07-28T12:19:08.209Z,3.70
2022-07-28T12:21:47.557Z,2.67
2022-07-28T12:24:30.100Z,3.03
2022-07-28T12:26:58.385Z,3.75
2022-07-28T12:29:32.259Z,2.53
2022-07-28T12:32:06.166Z,2.65
2022-07-28T12:34:39.814Z,2.50
2022-07-28T12:37:10.931Z,3.13
2022-07-28T12:39:42.657Z,2.60
2022-07-28T12:42:11.606Z,2.85
2022-07-28T12:44:40.755Z,2.90
2022-07-28T12:47:10.796Z,2.85
2022-07-28T12:49:39.268Z,2.80
2022-07-28T12:52:21.437Z,2.80
2022-07-28T12:54:55.115Z,2.38
2022-07-28T12:57:48.670Z,2.67
2022-07-28T13:00:22.724Z,2.72
2022-07-28T13:02:52.254Z,2.83
2022-07-28T13:05:53.864Z,2.85
2022-07-28T13:08:21.875Z,3.17
2022-07-28T13:10:51.603Z,3.47
2022-07-28T13:13:20.966Z,3.25
2022-07-28T13:16:20.734Z,2.85
2022-07-28T13:18:51.523Z,2.90
2022-07-28T13:21:56.506Z,3.13
2022-07-28T13:24:24.462Z,3.17
2022-07-28T13:26:51.480Z,3.00
2022-07-28T13:29:18.368Z,3.58
2022-07-28T13:31:45.265Z,2.88
2022-07-28T13:34:12.674Z,2.42
2022-07-28T13:36:39.873Z,2.80
2022-07-28T13:39:10.372Z,2.85
2022-07-28T13:41:42.053Z,3.00
2022-07-28T13:44:24.882Z,2.70
2022-07-28T13:46:52.024Z,2.83
2022-07-28T13:49:21.237Z,3.10
2022-07-28T13:51:49.063Z,3.30
2022-07-28T13:54:19.297Z,3.15
2022-07-28T13:57:05.501Z,3.30
2022-07-28T13:59:44.112Z,2.92
2022-07-28T14:02:15.037Z,2.90
2022-07-28T14:04:46.032Z,2.63
2022-07-28T14:07:21.229Z,2.88
2022-07-28T14:09:50.593Z,3.10
2022-07-28T14:12:18.252Z,2.97
2022-07-28T14:14:48.335Z,2.67
2022-07-28T14:17:42.713Z,2.97
2022-07-28T14:20:10.524Z,2.72
2022-07-28T14:22:37.335Z,2.38
2022-07-28T14:25:04.541Z,3.15
2022-07-28T14:27:31.502Z,2.83
2022-07-28T14:29:58.501Z,2.90
2022-07-28T14:32:25.309Z,2.60
2022-07-28T14:34:53.371Z,2.80
2022-07-28T14:37:21.622Z,3.08
2022-07-28T14:39:48.441Z,3.13
2022-07-28T14:42:15.539Z,3.08
2022-07-28T14:44:42.343Z,2.97
2022-07-28T14:47:09.432Z,2.90
2022-07-28T14:49:36.420Z,3.22
2022-07-28T14:52:03.900Z,3.03
2022-07-28T14:54:32.953Z,2.95
2022-07-28T14:56:59.844Z,3.15
2022-07-28T14:59:26.684Z,2.80
2022-07-28T15:01:53.697Z,2.85
2022-07-28T15:04:21.020Z,2.60
2022-07-28T15:06:48.008Z,2.90
2022-07-28T15:09:15.145Z,2.58
2022-07-28T15:11:42.263Z,3.00
2022-07-28T15:14:09.099Z,2.80
2022-07-28T15:16:36.159Z,3.20
2022-07-28T15:19:03.257Z,3.08
2022-07-28T15:21:35.871Z,3.45
2022-07-28T15:24:03.873Z,2.85
2022-07-28T15:26:30.872Z,2.47
2022-07-28T15:28:57.789Z,3.03
2022-07-28T15:31:25.514Z,3.30
2022-07-28T15:33:57.845Z,3.15
2022-07-28T15:36:25.706Z,2.90
2022-07-28T15:38:53.669Z,3.20
2022-07-28T15:41:20.742Z,2.70
2022-07-28T15:43:47.568Z,3.10
2022-07-28T15:46:14.793Z,2.97
2022-07-28T15:48:43.732Z,2.83
2022-07-28T15:51:11.269Z,2.83
2022-07-28T15:53:38.281Z,3.22
2022-07-28T15:56:05.336Z,2.90
2022-07-28T15:58:32.266Z,4.47
2022-07-28T16:01:01.059Z,2.97
2022-07-28T16:03:29.597Z,3.38
2022-07-28T16:05:56.925Z,3.20
2022-07-28T16:08:23.879Z,3.65
2022-07-28T16:10:52.680Z,3.58
2022-07-28T16:13:31.323Z,3.53
2022-07-28T16:16:08.863Z,3.67
2022-07-28T16:18:37.080Z,3.38
2022-07-28T16:21:04.670Z,3.55
2022-07-28T16:23:31.809Z,3.10
2022-07-28T16:25:59.051Z,3.20
2022-07-28T16:28:26.562Z,3.35
2022-07-28T16:30:54.168Z,3.00
2022-07-28T16:33:20.996Z,3.45
2022-07-28T16:35:48.297Z,3.30
2022-07-28T16:38:15.189Z,3.00
2022-07-28T16:40:42.267Z,3.83
2022-07-28T16:43:09.933Z,3.25
2022-07-28T16:45:37.075Z,2.70
2022-07-28T16:48:04.401Z,3.20
2022-07-28T16:50:32.874Z,3.85
2022-07-28T16:53:00.738Z,2.97
2022-07-28T16:55:27.695Z,2.80
2022-07-28T16:57:54.600Z,2.80
2022-07-28T17:00:21.768Z,3.28
2022-07-28T17:02:48.600Z,3.13
2022-07-28T17:05:15.508Z,2.70
2022-07-28T17:07:45.677Z,3.17
2022-07-28T17:10:16.070Z,3.30
2022-07-28T17:12:50.271Z,3.10
2022-07-28T17:15:22.154Z,3.38
2022-07-28T17:17:53.419Z,3.40
2022-07-28T17:20:21.145Z,2.70
2022-07-28T17:22:48.517Z,2.97
2022-07-28T17:25:43.919Z,2.58
2022-07-28T17:28:03.307Z,2.85
2022-07-28T17:30:32.788Z,3.10
2022-07-28T17:33:06.103Z,3.00
2022-07-28T17:35:35.966Z,3.00
2022-07-28T17:38:05.048Z,3.00
2022-07-28T17:40:32.065Z,2.80
2022-07-28T17:42:58.894Z,2.40
2022-07-28T17:45:25.850Z,2.60
2022-07-28T17:47:52.938Z,2.67
2022-07-28T17:50:19.920Z,2.42
2022-07-28T17:52:46.929Z,2.67
2022-07-28T17:55:40.715Z,2.60
2022-07-28T17:58:28.652Z,2.45
2022-07-28T18:01:10.719Z,2.20
2022-07-28T18:03:56.482Z,2.80
2022-07-28T18:06:33.431Z,2.50
2022-07-28T18:09:06.624Z,2.53
2022-07-28T18:11:57.853Z,2.35
2022-07-28T18:14:27.677Z,2.65
2022-07-28T18:16:55.168Z,2.53
2022-07-28T18:19:22.134Z,2.85
2022-07-28T18:21:49.204Z,2.60
2022-07-28T18:24:16.513Z,2.70
2022-07-28T18:26:43.921Z,2.45
2022-07-28T18:29:10.805Z,2.60
2022-07-28T18:31:43.890Z,2.13
2022-07-28T18:34:13.662Z,2.83
2022-07-28T18:36:40.758Z,2.50
2022-07-28T18:39:08.521Z,2.50
2022-07-28T18:41:47.431Z,2.33
2022-07-28T18:44:19.460Z,2.40
2022-07-28T18:46:47.037Z,2.93
2022-07-28T18:49:14.804Z,2.47
2022-07-28T18:51:44.254Z,2.20
2022-07-28T18:54:14.217Z,2.73
2022-07-28T18:56:41.439Z,2.33
2022-07-28T18:59:08.326Z,2.60
2022-07-28T19:01:35.334Z,2.87
2022-07-28T19:04:02.631Z,2.47
2022-07-28T19:06:29.536Z,2.07
2022-07-28T19:08:56.684Z,2.30
2022-07-28T19:11:23.477Z,2.13
2022-07-28T19:13:50.389Z,2.70
2022-07-28T19:16:18.955Z,2.80
2022-07-28T19:18:45.865Z,2.40
2022-07-28T19:21:13.539Z,2.97
2022-07-28T19:23:40.466Z,2.97
2022-07-28T19:26:07.516Z,2.20
2022-07-28T19:28:34.415Z,2.17
2022-07-28T19:31:10.261Z,3.27
2022-07-28T19:33:42.855Z,2.10
2022-07-28T19:36:14.616Z,2.43
2022-07-28T19:38:42.294Z,1.93
2022-07-28T19:41:09.767Z,2.47
2022-07-28T19:43:36.678Z,2.30
2022-07-28T19:46:03.586Z,2.30
2022-07-28T19:48:30.492Z,2.10
2022-07-28T19:50:57.488Z,2.03
2022-07-28T19:53:25.337Z,2.23
2022-07-28T19:55:59.310Z,2.67
2022-07-28T19:58:26.234Z,2.20
2022-07-28T20:00:53.724Z,2.20
2022-07-28T20:04:00.967Z,2.10
2022-07-28T20:06:11.559Z,2.17
2022-07-28T20:08:39.009Z,3.73
2022-07-28T20:11:06.520Z,2.40
2022-07-28T20:13:33.531Z,2.40
2022-07-28T20:16:00.429Z,1.97
2022-07-28T20:18:27.254Z,1.90
2022-07-28T20:20:54.056Z,2.70
2022-07-28T20:23:21.059Z,2.10
2022-07-28T20:25:47.960Z,2.00
2022-07-28T20:28:14.806Z,2.20
2022-07-28T20:30:41.780Z,2.10
2022-07-28T20:33:08.711Z,2.20
2022-07-28T20:35:35.595Z,1.90
2022-07-28T20:38:03.395Z,1.80
2022-07-28T20:40:30.290Z,2.10
2022-07-28T20:42:57.272Z,1.97
2022-07-28T20:45:24.239Z,2.00
2022-07-28T20:47:51.412Z,1.80
2022-07-28T20:50:20.211Z,1.90
2022-07-28T20:52:48.154Z,1.67
2022-07-28T20:55:15.020Z,2.13
2022-07-28T20:57:42.137Z,2.00
2022-07-28T21:00:20.491Z,1.70
2022-07-28T21:02:47.639Z,2.10
2022-07-28T21:05:26.615Z,2.00
2022-07-28T21:08:05.802Z,2.17
2022-07-28T21:10:36.778Z,2.13
2022-07-28T21:13:03.829Z,1.90
2022-07-28T21:15:31.939Z,2.40
2022-07-28T21:17:59.060Z,2.10
2022-07-28T21:20:26.532Z,1.80
2022-07-28T21:22:53.780Z,2.27
2022-07-28T21:25:20.666Z,2.53
2022-07-28T21:28:06.289Z,2.03
2022-07-28T21:30:33.360Z,1.90
2022-07-28T21:33:00.306Z,1.87
2022-07-28T21:35:27.264Z,2.30
2022-07-28T21:37:54.107Z,2.10
2022-07-28T21:40:21.052Z,1.83
2022-07-28T21:42:48.005Z,1.80
2022-07-28T21:45:15.032Z,2.00
2022-07-28T21:47:42.062Z,2.30
2022-07-28T21:50:09.373Z,2.30
2022-07-28T21:52:37.660Z,2.50
2022-07-28T21:55:06.873Z,2.50
2022-07-28T21:57:34.685Z,2.40
2022-07-28T22:00:02.861Z,2.83
2022-07-28T22:02:32.734Z,3.43
2022-07-28T22:04:59.825Z,3.50
2022-07-28T22:07:26.797Z,3.33
2022-07-28T22:09:53.688Z,3.40
2022-07-28T22:12:21.352Z,3.20
2022-07-28T22:14:48.169Z,2.97
2022-07-28T22:17:14.958Z,3.63
2022-07-28T22:19:41.815Z,2.87
2022-07-28T22:22:08.663Z,3.40
2022-07-28T22:24:35.512Z,3.43
2022-07-28T22:27:02.543Z,3.00
2022-07-28T22:29:31.100Z,3.83
2022-07-28T22:31:59.571Z,3.10
2022-07-28T22:34:27.868Z,3.20
2022-07-28T22:36:54.725Z,4.07
2022-07-28T22:39:21.951Z,3.40
2022-07-28T22:41:49.093Z,3.27
2022-07-28T22:44:16.325Z,3.23
2022-07-28T22:46:43.669Z,3.50
2022-07-28T22:49:10.595Z,3.73
2022-07-28T22:51:38.005Z,3.40
2022-07-28T22:54:04.984Z,3.60
2022-07-28T22:56:34.787Z,3.70
2022-07-28T22:59:04.959Z,3.77
2022-07-28T23:01:32.039Z,3.47
2022-07-28T23:03:59.033Z,3.43
2022-07-28T23:06:26.572Z,3.53
2022-07-28T23:08:53.587Z,3.40
2022-07-28T23:11:20.539Z,3.30
2022-07-28T23:13:47.323Z,3.10
2022-07-28T23:16:16.846Z,3.33
2022-07-28T23:18:44.436Z,3.17
2022-07-28T23:21:12.213Z,3.10
2022-07-28T23:23:39.311Z,3.57
2022-07-28T23:26:06.215Z,3.37
2022-07-28T23:28:33.101Z,3.40
2022-07-28T23:31:00.388Z,3.67
2022-07-28T23:33:54.204Z,3.80
2022-07-28T23:36:26.898Z,4.00
2022-07-28T23:38:58.800Z,4.30
2022-07-28T23:41:26.673Z,3.67
2022-07-28T23:43:54.144Z,3.50
2022-07-28T23:46:22.494Z,4.03
2022-07-28T23:48:49.892Z,4.07
2022-07-28T23:51:16.796Z,3.60
2022-07-28T23:53:44.129Z,3.50
2022-07-28T23:56:11.143Z,3.60
2022-07-28T23:58:38.184Z,3.40
